sensor_id;sensor_type;location;lat;lon;timestamp;P1;durP1;ratioP1;P2;durP2;ratioP2
35494;SDS011;21608;49.300;6.846;2022-07-12T00:01:12;6.97;;;6.47;;
35494;SDS011;21608;49.300;6.846;2022-07-12T00:04:14;6.38;;;5.90;;
35494;SDS011;21608;49.300;6.846;2022-07-12T00:07:16;5.88;;;5.57;;
35494;SDS011;21608;49.300;6.846;2022-07-12T00:10:20;6.03;;;5.63;;
35494;SDS011;21608;49.300;6.846;2022-07-12T00:13:22;6.63;;;6.22;;
35494;SDS011;21608;49.300;6.846;2022-07-12T00:16:24;6.93;;;6.45;;
35494;SDS011;21608;49.300;6.846;2022-07-12T00:19:26;6.30;;;5.90;;
35494;SDS011;21608;49.300;6.846;2022-07-12T00:22:28;6.75;;;6.15;;
35494;SDS011;21608;49.300;6.846;2022-07-12T00:25:30;7.20;;;6.60;;
35494;SDS011;21608;49.300;6.846;2022-07-12T00:28:32;6.75;;;6.10;;
35494;SDS011;21608;49.300;6.846;2022-07-12T00:31:34;7.03;;;6.43;;
35494;SDS011;21608;49.300;6.846;2022-07-12T00:34:36;6.53;;;6.13;;
35494;SDS011;21608;49.300;6.846;2022-07-12T00:37:38;6.43;;;5.88;;
35494;SDS011;21608;49.300;6.846;2022-07-12T00:40:40;6.70;;;6.15;;
35494;SDS011;21608;49.300;6.846;2022-07-12T00:43:41;6.55;;;6.03;;
35494;SDS011;21608;49.300;6.846;2022-07-12T00:46:43;6.63;;;6.03;;
35494;SDS011;21608;49.300;6.846;2022-07-12T00:49:47;6.75;;;6.28;;
35494;SDS011;21608;49.300;6.846;2022-07-12T00:52:52;7.07;;;6.53;;
35494;SDS011;21608;49.300;6.846;2022-07-12T00:58:58;6.68;;;6.07;;
35494;SDS011;21608;49.300;6.846;2022-07-12T01:02:00;6.35;;;5.95;;
35494;SDS011;21608;49.300;6.846;2022-07-12T01:05:06;6.97;;;6.47;;
35494;SDS011;21608;49.300;6.846;2022-07-12T01:08:09;7.30;;;6.65;;
35494;SDS011;21608;49.300;6.846;2022-07-12T01:11:13;8.60;;;6.18;;
35494;SDS011;21608;49.300;6.846;2022-07-12T01:14:16;7.28;;;6.78;;
35494;SDS011;21608;49.300;6.846;2022-07-12T01:17:20;7.38;;;6.90;;
35494;SDS011;21608;49.300;6.846;2022-07-12T01:20:23;6.57;;;6.13;;
35494;SDS011;21608;49.300;6.846;2022-07-12T01:23:25;7.13;;;6.68;;
35494;SDS011;21608;49.300;6.846;2022-07-12T01:26:27;7.38;;;6.88;;
35494;SDS011;21608;49.300;6.846;2022-07-12T01:29:29;6.40;;;6.00;;
35494;SDS011;21608;49.300;6.846;2022-07-12T01:32:32;6.93;;;6.43;;
35494;SDS011;21608;49.300;6.846;2022-07-12T01:35:35;7.93;;;6.53;;
35494;SDS011;21608;49.300;6.846;2022-07-12T01:38:37;6.30;;;5.88;;
35494;SDS011;21608;49.300;6.846;2022-07-12T01:41:39;6.68;;;6.20;;
35494;SDS011;21608;49.300;6.846;2022-07-12T01:44:41;7.13;;;6.63;;
35494;SDS011;21608;49.300;6.846;2022-07-12T01:47:43;7.10;;;6.60;;
35494;SDS011;21608;49.300;6.846;2022-07-12T01:50:46;6.50;;;5.97;;
35494;SDS011;21608;49.300;6.846;2022-07-12T01:53:48;7.05;;;6.55;;
35494;SDS011;21608;49.300;6.846;2022-07-12T01:56:53;6.40;;;6.00;;
35494;SDS011;21608;49.300;6.846;2022-07-12T01:59:56;6.45;;;6.03;;
35494;SDS011;21608;49.300;6.846;2022-07-12T02:02:58;7.20;;;6.53;;
35494;SDS011;21608;49.300;6.846;2022-07-12T02:06:00;6.22;;;5.72;;
35494;SDS011;21608;49.300;6.846;2022-07-12T02:09:02;6.70;;;6.30;;
35494;SDS011;21608;49.300;6.846;2022-07-12T02:12:04;6.95;;;6.20;;
35494;SDS011;21608;49.300;6.846;2022-07-12T02:15:06;6.75;;;6.22;;
35494;SDS011;21608;49.300;6.846;2022-07-12T02:18:09;6.53;;;6.13;;
35494;SDS011;21608;49.300;6.846;2022-07-12T02:21:11;6.47;;;6.07;;
35494;SDS011;21608;49.300;6.846;2022-07-12T02:24:14;6.78;;;6.32;;
35494;SDS011;21608;49.300;6.846;2022-07-12T02:27:16;6.68;;;6.20;;
35494;SDS011;21608;49.300;6.846;2022-07-12T02:30:18;6.25;;;5.85;;
35494;SDS011;21608;49.300;6.846;2022-07-12T02:33:19;6.88;;;6.32;;
35494;SDS011;21608;49.300;6.846;2022-07-12T02:36:21;8.15;;;5.97;;
35494;SDS011;21608;49.300;6.846;2022-07-12T02:39:23;6.32;;;5.93;;
35494;SDS011;21608;49.300;6.846;2022-07-12T02:42:25;6.78;;;6.38;;
35494;SDS011;21608;49.300;6.846;2022-07-12T02:45:27;6.57;;;6.13;;
35494;SDS011;21608;49.300;6.846;2022-07-12T02:48:29;6.38;;;5.88;;
35494;SDS011;21608;49.300;6.846;2022-07-12T02:51:31;6.32;;;5.93;;
35494;SDS011;21608;49.300;6.846;2022-07-12T02:54:33;6.35;;;5.82;;
35494;SDS011;21608;49.300;6.846;2022-07-12T02:57:35;6.38;;;5.97;;
35494;SDS011;21608;49.300;6.846;2022-07-12T03:00:37;6.90;;;6.40;;
35494;SDS011;21608;49.300;6.846;2022-07-12T03:03:43;6.88;;;6.38;;
35494;SDS011;21608;49.300;6.846;2022-07-12T03:06:44;6.63;;;6.13;;
35494;SDS011;21608;49.300;6.846;2022-07-12T03:09:46;6.45;;;5.85;;
35494;SDS011;21608;49.300;6.846;2022-07-12T03:12:48;6.95;;;6.45;;
35494;SDS011;21608;49.300;6.846;2022-07-12T03:15:50;7.13;;;6.63;;
35494;SDS011;21608;49.300;6.846;2022-07-12T03:18:52;7.22;;;6.63;;
35494;SDS011;21608;49.300;6.846;2022-07-12T03:21:54;6.72;;;6.22;;
35494;SDS011;21608;49.300;6.846;2022-07-12T03:24:56;7.50;;;6.90;;
35494;SDS011;21608;49.300;6.846;2022-07-12T03:27:58;6.55;;;6.05;;
35494;SDS011;21608;49.300;6.846;2022-07-12T03:31:00;6.78;;;6.30;;
35494;SDS011;21608;49.300;6.846;2022-07-12T03:34:02;6.72;;;6.30;;
35494;SDS011;21608;49.300;6.846;2022-07-12T03:37:04;6.82;;;6.22;;
35494;SDS011;21608;49.300;6.846;2022-07-12T03:40:06;6.57;;;6.07;;
35494;SDS011;21608;49.300;6.846;2022-07-12T03:43:09;6.93;;;6.43;;
35494;SDS011;21608;49.300;6.846;2022-07-12T03:46:11;6.72;;;6.20;;
35494;SDS011;21608;49.300;6.846;2022-07-12T03:49:13;6.95;;;6.45;;
35494;SDS011;21608;49.300;6.846;2022-07-12T03:52:15;8.05;;;6.20;;
35494;SDS011;21608;49.300;6.846;2022-07-12T03:55:17;6.38;;;5.93;;
35494;SDS011;21608;49.300;6.846;2022-07-12T03:58:19;5.82;;;5.28;;
35494;SDS011;21608;49.300;6.846;2022-07-12T04:01:23;6.70;;;6.28;;
35494;SDS011;21608;49.300;6.846;2022-07-12T04:04:25;6.15;;;5.65;;
35494;SDS011;21608;49.300;6.846;2022-07-12T04:07:27;6.53;;;5.97;;
35494;SDS011;21608;49.300;6.846;2022-07-12T04:10:29;6.15;;;5.78;;
35494;SDS011;21608;49.300;6.846;2022-07-12T04:13:31;6.72;;;6.13;;
35494;SDS011;21608;49.300;6.846;2022-07-12T04:16:33;5.97;;;5.57;;
35494;SDS011;21608;49.300;6.846;2022-07-12T04:19:35;6.25;;;5.85;;
35494;SDS011;21608;49.300;6.846;2022-07-12T04:22:37;6.25;;;5.85;;
35494;SDS011;21608;49.300;6.846;2022-07-12T04:25:39;5.43;;;5.03;;
35494;SDS011;21608;49.300;6.846;2022-07-12T04:28:42;6.10;;;5.70;;
35494;SDS011;21608;49.300;6.846;2022-07-12T04:31:44;6.45;;;6.05;;
35494;SDS011;21608;49.300;6.846;2022-07-12T04:34:46;8.23;;;5.97;;
35494;SDS011;21608;49.300;6.846;2022-07-12T04:37:48;7.07;;;6.47;;
35494;SDS011;21608;49.300;6.846;2022-07-12T04:40:50;6.32;;;5.70;;
35494;SDS011;21608;49.300;6.846;2022-07-12T04:43:52;7.05;;;6.45;;
35494;SDS011;21608;49.300;6.846;2022-07-12T04:46:54;7.53;;;6.30;;
35494;SDS011;21608;49.300;6.846;2022-07-12T04:49:55;6.68;;;6.05;;
35494;SDS011;21608;49.300;6.846;2022-07-12T04:52:57;6.70;;;6.30;;
35494;SDS011;21608;49.300;6.846;2022-07-12T04:55:59;8.23;;;5.82;;
35494;SDS011;21608;49.300;6.846;2022-07-12T04:59:01;6.38;;;5.97;;
35494;SDS011;21608;49.300;6.846;2022-07-12T05:02:03;6.65;;;6.05;;
35494;SDS011;21608;49.300;6.846;2022-07-12T05:05:06;6.32;;;5.88;;
35494;SDS011;21608;49.300;6.846;2022-07-12T05:08:09;6.00;;;5.50;;
35494;SDS011;21608;49.300;6.846;2022-07-12T05:11:10;6.65;;;6.05;;
35494;SDS011;21608;49.300;6.846;2022-07-12T05:14:12;6.32;;;5.82;;
35494;SDS011;21608;49.300;6.846;2022-07-12T05:17:14;6.07;;;5.55;;
35494;SDS011;21608;49.300;6.846;2022-07-12T05:20:16;6.65;;;5.40;;
35494;SDS011;21608;49.300;6.846;2022-07-12T05:23:18;9.30;;;6.07;;
35494;SDS011;21608;49.300;6.846;2022-07-12T05:26:20;8.25;;;5.07;;
35494;SDS011;21608;49.300;6.846;2022-07-12T05:29:22;9.98;;;6.13;;
35494;SDS011;21608;49.300;6.846;2022-07-12T05:32:24;5.55;;;5.00;;
35494;SDS011;21608;49.300;6.846;2022-07-12T05:35:26;5.45;;;4.93;;
35494;SDS011;21608;49.300;6.846;2022-07-12T05:38:28;5.50;;;4.97;;
35494;SDS011;21608;49.300;6.846;2022-07-12T05:41:29;5.47;;;4.97;;
35494;SDS011;21608;49.300;6.846;2022-07-12T05:44:31;5.20;;;4.70;;
35494;SDS011;21608;49.300;6.846;2022-07-12T05:47:33;4.85;;;4.45;;
35494;SDS011;21608;49.300;6.846;2022-07-12T05:50:36;5.03;;;4.63;;
35494;SDS011;21608;49.300;6.846;2022-07-12T05:53:38;7.03;;;4.25;;
35494;SDS011;21608;49.300;6.846;2022-07-12T05:56:40;5.25;;;4.93;;
35494;SDS011;21608;49.300;6.846;2022-07-12T05:59:42;4.95;;;4.65;;
35494;SDS011;21608;49.300;6.846;2022-07-12T06:02:44;5.25;;;4.93;;
35494;SDS011;21608;49.300;6.846;2022-07-12T06:05:46;4.90;;;4.50;;
35494;SDS011;21608;49.300;6.846;2022-07-12T06:08:48;6.28;;;4.60;;
35494;SDS011;21608;49.300;6.846;2022-07-12T06:11:50;5.47;;;4.97;;
35494;SDS011;21608;49.300;6.846;2022-07-12T06:14:52;5.22;;;4.82;;
35494;SDS011;21608;49.300;6.846;2022-07-12T06:17:54;5.85;;;4.43;;
35494;SDS011;21608;49.300;6.846;2022-07-12T06:20:55;5.25;;;4.95;;
35494;SDS011;21608;49.300;6.846;2022-07-12T06:23:57;4.55;;;4.15;;
35494;SDS011;21608;49.300;6.846;2022-07-12T06:26:59;4.65;;;4.35;;
35494;SDS011;21608;49.300;6.846;2022-07-12T06:30:01;4.78;;;4.45;;
35494;SDS011;21608;49.300;6.846;2022-07-12T06:33:03;5.03;;;4.55;;
35494;SDS011;21608;49.300;6.846;2022-07-12T06:36:05;5.07;;;4.63;;
35494;SDS011;21608;49.300;6.846;2022-07-12T06:39:06;4.53;;;4.13;;
35494;SDS011;21608;49.300;6.846;2022-07-12T06:42:08;5.18;;;4.55;;
35494;SDS011;21608;49.300;6.846;2022-07-12T06:45:13;4.30;;;4.03;;
35494;SDS011;21608;49.300;6.846;2022-07-12T06:48:14;5.25;;;4.88;;
35494;SDS011;21608;49.300;6.846;2022-07-12T06:51:16;5.28;;;4.38;;
35494;SDS011;21608;49.300;6.846;2022-07-12T06:54:18;4.40;;;4.10;;
35494;SDS011;21608;49.300;6.846;2022-07-12T06:57:20;4.13;;;3.58;;
35494;SDS011;21608;49.300;6.846;2022-07-12T07:00:22;3.92;;;3.63;;
35494;SDS011;21608;49.300;6.846;2022-07-12T07:03:24;4.65;;;4.28;;
35494;SDS011;21608;49.300;6.846;2022-07-12T07:06:26;3.97;;;3.78;;
35494;SDS011;21608;49.300;6.846;2022-07-12T07:09:28;4.53;;;4.22;;
35494;SDS011;21608;49.300;6.846;2022-07-12T07:12:29;3.88;;;3.60;;
35494;SDS011;21608;49.300;6.846;2022-07-12T07:15:31;4.10;;;3.80;;
35494;SDS011;21608;49.300;6.846;2022-07-12T07:18:33;4.13;;;3.72;;
35494;SDS011;21608;49.300;6.846;2022-07-12T07:21:35;3.92;;;3.70;;
35494;SDS011;21608;49.300;6.846;2022-07-12T07:24:37;3.95;;;3.72;;
35494;SDS011;21608;49.300;6.846;2022-07-12T07:27:40;3.83;;;3.53;;
35494;SDS011;21608;49.300;6.846;2022-07-12T07:30:41;3.47;;;3.28;;
35494;SDS011;21608;49.300;6.846;2022-07-12T07:33:55;4.22;;;3.63;;
35494;SDS011;21608;49.300;6.846;2022-07-12T07:36:57;5.57;;;4.10;;
35494;SDS011;21608;49.300;6.846;2022-07-12T07:39:59;4.18;;;3.78;;
35494;SDS011;21608;49.300;6.846;2022-07-12T07:43:01;4.57;;;3.50;;
35494;SDS011;21608;49.300;6.846;2022-07-12T07:46:03;4.38;;;3.97;;
35494;SDS011;21608;49.300;6.846;2022-07-12T07:49:05;4.18;;;3.92;;
35494;SDS011;21608;49.300;6.846;2022-07-12T07:52:07;3.95;;;3.40;;
35494;SDS011;21608;49.300;6.846;2022-07-12T07:55:09;4.97;;;3.67;;
35494;SDS011;21608;49.300;6.846;2022-07-12T07:58:11;3.72;;;3.15;;
35494;SDS011;21608;49.300;6.846;2022-07-12T08:01:15;3.58;;;3.38;;
35494;SDS011;21608;49.300;6.846;2022-07-12T08:04:17;3.33;;;3.13;;
35494;SDS011;21608;49.300;6.846;2022-07-12T08:07:20;5.95;;;3.50;;
35494;SDS011;21608;49.300;6.846;2022-07-12T08:10:41;5.47;;;3.35;;
35494;SDS011;21608;49.300;6.846;2022-07-12T08:13:43;4.72;;;3.30;;
35494;SDS011;21608;49.300;6.846;2022-07-12T08:16:45;2.97;;;2.78;;
35494;SDS011;21608;49.300;6.846;2022-07-12T08:19:47;3.05;;;2.88;;
35494;SDS011;21608;49.300;6.846;2022-07-12T08:22:49;3.60;;;3.30;;
35494;SDS011;21608;49.300;6.846;2022-07-12T08:25:51;4.68;;;3.25;;
35494;SDS011;21608;49.300;6.846;2022-07-12T08:28:53;4.20;;;3.85;;
35494;SDS011;21608;49.300;6.846;2022-07-12T08:31:54;5.25;;;3.80;;
35494;SDS011;21608;49.300;6.846;2022-07-12T08:34:56;4.65;;;4.13;;
35494;SDS011;21608;49.300;6.846;2022-07-12T08:37:58;4.00;;;3.70;;
35494;SDS011;21608;49.300;6.846;2022-07-12T08:41:00;3.80;;;3.50;;
35494;SDS011;21608;49.300;6.846;2022-07-12T08:44:02;3.83;;;3.40;;
35494;SDS011;21608;49.300;6.846;2022-07-12T08:47:06;5.28;;;3.83;;
35494;SDS011;21608;49.300;6.846;2022-07-12T08:50:09;3.95;;;3.60;;
35494;SDS011;21608;49.300;6.846;2022-07-12T08:53:15;3.60;;;3.40;;
35494;SDS011;21608;49.300;6.846;2022-07-12T08:56:33;4.22;;;3.92;;
35494;SDS011;21608;49.300;6.846;2022-07-12T08:59:41;4.07;;;3.67;;
35494;SDS011;21608;49.300;6.846;2022-07-12T09:05:56;3.70;;;3.40;;
35494;SDS011;21608;49.300;6.846;2022-07-12T09:09:01;3.90;;;3.40;;
35494;SDS011;21608;49.300;6.846;2022-07-12T09:12:03;3.80;;;3.60;;
35494;SDS011;21608;49.300;6.846;2022-07-12T09:15:19;3.60;;;3.30;;
35494;SDS011;21608;49.300;6.846;2022-07-12T09:18:22;4.38;;;3.22;;
35494;SDS011;21608;49.300;6.846;2022-07-12T09:24:32;3.58;;;3.20;;
35494;SDS011;21608;49.300;6.846;2022-07-12T09:27:33;4.10;;;3.58;;
35494;SDS011;21608;49.300;6.846;2022-07-12T09:30:36;3.25;;;3.05;;
35494;SDS011;21608;49.300;6.846;2022-07-12T09:34:00;6.57;;;3.13;;
35494;SDS011;21608;49.300;6.846;2022-07-12T09:37:22;2.92;;;2.72;;
35494;SDS011;21608;49.300;6.846;2022-07-12T09:40:25;3.72;;;3.25;;
35494;SDS011;21608;49.300;6.846;2022-07-12T09:43:27;3.20;;;3.00;;
35494;SDS011;21608;49.300;6.846;2022-07-12T09:46:29;3.70;;;3.40;;
35494;SDS011;21608;49.300;6.846;2022-07-12T09:49:33;3.58;;;3.05;;
35494;SDS011;21608;49.300;6.846;2022-07-12T09:52:37;3.33;;;3.03;;
35494;SDS011;21608;49.300;6.846;2022-07-12T09:55:40;3.55;;;2.97;;
35494;SDS011;21608;49.300;6.846;2022-07-12T10:01:58;3.03;;;2.72;;
35494;SDS011;21608;49.300;6.846;2022-07-12T10:05:06;3.13;;;2.92;;
35494;SDS011;21608;49.300;6.846;2022-07-12T10:08:09;3.38;;;3.08;;
35494;SDS011;21608;49.300;6.846;2022-07-12T10:11:11;3.58;;;3.28;;
35494;SDS011;21608;49.300;6.846;2022-07-12T10:14:34;3.30;;;3.10;;
35494;SDS011;21608;49.300;6.846;2022-07-12T10:17:37;2.90;;;2.70;;
35494;SDS011;21608;49.300;6.846;2022-07-12T10:20:41;3.83;;;2.83;;
35494;SDS011;21608;49.300;6.846;2022-07-12T10:23:46;3.10;;;2.80;;
35494;SDS011;21608;49.300;6.846;2022-07-12T10:26:48;2.90;;;2.60;;
35494;SDS011;21608;49.300;6.846;2022-07-12T10:29:50;2.80;;;2.55;;
35494;SDS011;21608;49.300;6.846;2022-07-12T10:32:54;3.38;;;3.17;;
35494;SDS011;21608;49.300;6.846;2022-07-12T10:36:00;3.35;;;3.05;;
35494;SDS011;21608;49.300;6.846;2022-07-12T10:39:11;3.40;;;3.13;;
35494;SDS011;21608;49.300;6.846;2022-07-12T10:42:15;2.97;;;2.78;;
35494;SDS011;21608;49.300;6.846;2022-07-12T10:45:24;3.42;;;3.13;;
35494;SDS011;21608;49.300;6.846;2022-07-12T10:48:30;2.80;;;2.65;;
35494;SDS011;21608;49.300;6.846;2022-07-12T10:51:32;4.07;;;3.03;;
35494;SDS011;21608;49.300;6.846;2022-07-12T10:54:34;3.85;;;2.60;;
35494;SDS011;21608;49.300;6.846;2022-07-12T10:57:43;5.00;;;2.88;;
35494;SDS011;21608;49.300;6.846;2022-07-12T11:00:46;3.15;;;2.88;;
35494;SDS011;21608;49.300;6.846;2022-07-12T11:03:53;3.15;;;2.95;;
35494;SDS011;21608;49.300;6.846;2022-07-12T11:07:00;2.63;;;2.42;;
35494;SDS011;21608;49.300;6.846;2022-07-12T11:10:03;2.90;;;2.70;;
35494;SDS011;21608;49.300;6.846;2022-07-12T11:13:20;5.88;;;2.95;;
35494;SDS011;21608;49.300;6.846;2022-07-12T11:16:29;3.03;;;2.83;;
35494;SDS011;21608;49.300;6.846;2022-07-12T11:19:32;5.25;;;2.90;;
35494;SDS011;21608;49.300;6.846;2022-07-12T11:22:35;7.63;;;2.83;;
35494;SDS011;21608;49.300;6.846;2022-07-12T11:25:38;2.53;;;2.35;;
35494;SDS011;21608;49.300;6.846;2022-07-12T11:28:42;2.80;;;2.60;;
35494;SDS011;21608;49.300;6.846;2022-07-12T11:31:45;2.90;;;2.70;;
35494;SDS011;21608;49.300;6.846;2022-07-12T11:34:52;2.53;;;2.33;;
35494;SDS011;21608;49.300;6.846;2022-07-12T11:37:55;4.53;;;2.70;;
35494;SDS011;21608;49.300;6.846;2022-07-12T11:40:58;3.85;;;2.80;;
35494;SDS011;21608;49.300;6.846;2022-07-12T11:44:01;3.80;;;3.45;;
35494;SDS011;21608;49.300;6.846;2022-07-12T11:47:03;3.83;;;2.90;;
35494;SDS011;21608;49.300;6.846;2022-07-12T11:50:05;3.03;;;2.70;;
35494;SDS011;21608;49.300;6.846;2022-07-12T11:53:17;2.75;;;2.55;;
35494;SDS011;21608;49.300;6.846;2022-07-12T11:56:28;3.13;;;2.83;;
35494;SDS011;21608;49.300;6.846;2022-07-12T11:59:32;4.10;;;3.20;;
35494;SDS011;21608;49.300;6.846;2022-07-12T12:02:34;3.33;;;2.40;;
35494;SDS011;21608;49.300;6.846;2022-07-12T12:05:36;2.97;;;2.40;;
35494;SDS011;21608;49.300;6.846;2022-07-12T12:08:38;2.50;;;2.30;;
35494;SDS011;21608;49.300;6.846;2022-07-12T12:11:40;2.60;;;2.40;;
35494;SDS011;21608;49.300;6.846;2022-07-12T12:14:42;2.42;;;2.20;;
35494;SDS011;21608;49.300;6.846;2022-07-12T12:20:56;2.25;;;2.10;;
35494;SDS011;21608;49.300;6.846;2022-07-12T12:24:09;3.03;;;2.25;;
35494;SDS011;21608;49.300;6.846;2022-07-12T12:27:24;6.22;;;2.67;;
35494;SDS011;21608;49.300;6.846;2022-07-12T12:30:26;4.05;;;2.53;;
35494;SDS011;21608;49.300;6.846;2022-07-12T12:33:38;2.50;;;2.30;;
35494;SDS011;21608;49.300;6.846;2022-07-12T12:36:44;2.67;;;2.50;;
35494;SDS011;21608;49.300;6.846;2022-07-12T12:39:47;2.70;;;2.50;;
35494;SDS011;21608;49.300;6.846;2022-07-12T12:42:51;3.25;;;2.50;;
35494;SDS011;21608;49.300;6.846;2022-07-12T12:45:55;2.53;;;2.38;;
35494;SDS011;21608;49.300;6.846;2022-07-12T12:48:58;2.58;;;2.38;;
35494;SDS011;21608;49.300;6.846;2022-07-12T12:51:59;2.00;;;1.88;;
35494;SDS011;21608;49.300;6.846;2022-07-12T12:55:01;2.67;;;2.47;;
35494;SDS011;21608;49.300;6.846;2022-07-12T12:58:04;2.50;;;2.40;;
35494;SDS011;21608;49.300;6.846;2022-07-12T13:01:06;4.50;;;2.22;;
35494;SDS011;21608;49.300;6.846;2022-07-12T13:04:09;2.15;;;2.05;;
35494;SDS011;21608;49.300;6.846;2022-07-12T13:07:11;2.33;;;2.22;;
35494;SDS011;21608;49.300;6.846;2022-07-12T13:10:14;6.70;;;2.67;;
35494;SDS011;21608;49.300;6.846;2022-07-12T13:13:16;4.70;;;1.90;;
35494;SDS011;21608;49.300;6.846;2022-07-12T13:16:19;2.47;;;2.28;;
35494;SDS011;21608;49.300;6.846;2022-07-12T13:19:22;2.33;;;2.22;;
35494;SDS011;21608;49.300;6.846;2022-07-12T13:22:23;2.72;;;2.47;;
35494;SDS011;21608;49.300;6.846;2022-07-12T13:25:25;6.75;;;1.95;;
35494;SDS011;21608;49.300;6.846;2022-07-12T13:28:28;2.40;;;2.20;;
35494;SDS011;21608;49.300;6.846;2022-07-12T13:31:30;2.08;;;1.98;;
35494;SDS011;21608;49.300;6.846;2022-07-12T13:34:31;4.68;;;2.50;;
35494;SDS011;21608;49.300;6.846;2022-07-12T13:37:33;2.35;;;2.15;;
35494;SDS011;21608;49.300;6.846;2022-07-12T13:40:35;2.58;;;2.38;;
35494;SDS011;21608;49.300;6.846;2022-07-12T13:43:37;3.05;;;2.70;;
35494;SDS011;21608;49.300;6.846;2022-07-12T13:46:39;2.15;;;1.92;;
35494;SDS011;21608;49.300;6.846;2022-07-12T13:49:41;2.53;;;2.17;;
35494;SDS011;21608;49.300;6.846;2022-07-12T13:52:44;2.40;;;2.20;;
35494;SDS011;21608;49.300;6.846;2022-07-12T13:55:47;2.45;;;2.25;;
35494;SDS011;21608;49.300;6.846;2022-07-12T13:58:48;2.47;;;2.28;;
35494;SDS011;21608;49.300;6.846;2022-07-12T14:01:51;2.45;;;2.28;;
35494;SDS011;21608;49.300;6.846;2022-07-12T14:04:53;2.00;;;1.77;;
35494;SDS011;21608;49.300;6.846;2022-07-12T14:07:55;2.85;;;2.35;;
35494;SDS011;21608;49.300;6.846;2022-07-12T14:10:57;3.63;;;2.28;;
35494;SDS011;21608;49.300;6.846;2022-07-12T14:13:59;1.85;;;1.75;;
35494;SDS011;21608;49.300;6.846;2022-07-12T14:17:01;2.35;;;2.15;;
35494;SDS011;21608;49.300;6.846;2022-07-12T14:20:04;2.38;;;2.17;;
35494;SDS011;21608;49.300;6.846;2022-07-12T14:23:07;2.20;;;2.10;;
35494;SDS011;21608;49.300;6.846;2022-07-12T14:26:09;2.28;;;2.13;;
35494;SDS011;21608;49.300;6.846;2022-07-12T14:29:11;2.22;;;2.10;;
35494;SDS011;21608;49.300;6.846;2022-07-12T14:32:13;3.20;;;2.25;;
35494;SDS011;21608;49.300;6.846;2022-07-12T14:35:15;2.25;;;2.05;;
35494;SDS011;21608;49.300;6.846;2022-07-12T14:38:17;1.83;;;1.73;;
35494;SDS011;21608;49.300;6.846;2022-07-12T14:41:19;3.17;;;2.58;;
35494;SDS011;21608;49.300;6.846;2022-07-12T14:44:21;2.08;;;1.98;;
35494;SDS011;21608;49.300;6.846;2022-07-12T14:47:23;2.00;;;1.90;;
35494;SDS011;21608;49.300;6.846;2022-07-12T14:50:25;2.03;;;1.83;;
35494;SDS011;21608;49.300;6.846;2022-07-12T14:53:27;2.85;;;2.00;;
35494;SDS011;21608;49.300;6.846;2022-07-12T14:56:29;2.75;;;2.55;;
35494;SDS011;21608;49.300;6.846;2022-07-12T14:59:31;3.83;;;2.40;;
35494;SDS011;21608;49.300;6.846;2022-07-12T15:02:36;1.85;;;1.75;;
35494;SDS011;21608;49.300;6.846;2022-07-12T15:05:38;4.60;;;1.95;;
35494;SDS011;21608;49.300;6.846;2022-07-12T15:08:41;2.00;;;1.83;;
35494;SDS011;21608;49.300;6.846;2022-07-12T15:11:43;5.47;;;1.80;;
35494;SDS011;21608;49.300;6.846;2022-07-12T15:14:45;4.30;;;1.90;;
35494;SDS011;21608;49.300;6.846;2022-07-12T15:17:51;1.70;;;1.60;;
35494;SDS011;21608;49.300;6.846;2022-07-12T15:20:54;3.65;;;2.05;;
35494;SDS011;21608;49.300;6.846;2022-07-12T15:23:56;2.00;;;1.90;;
35494;SDS011;21608;49.300;6.846;2022-07-12T15:26:58;2.22;;;2.13;;
35494;SDS011;21608;49.300;6.846;2022-07-12T15:30:00;1.55;;;1.45;;
35494;SDS011;21608;49.300;6.846;2022-07-12T15:33:02;1.90;;;1.80;;
35494;SDS011;21608;49.300;6.846;2022-07-12T15:36:04;1.85;;;1.70;;
35494;SDS011;21608;49.300;6.846;2022-07-12T15:39:06;2.20;;;2.00;;
35494;SDS011;21608;49.300;6.846;2022-07-12T15:42:08;2.08;;;1.90;;
35494;SDS011;21608;49.300;6.846;2022-07-12T15:45:10;3.10;;;1.98;;
35494;SDS011;21608;49.300;6.846;2022-07-12T15:48:13;2.92;;;2.13;;
35494;SDS011;21608;49.300;6.846;2022-07-12T15:51:15;2.22;;;1.90;;
35494;SDS011;21608;49.300;6.846;2022-07-12T15:54:18;2.30;;;1.90;;
35494;SDS011;21608;49.300;6.846;2022-07-12T15:57:20;2.20;;;2.00;;
35494;SDS011;21608;49.300;6.846;2022-07-12T16:00:22;2.10;;;1.88;;
35494;SDS011;21608;49.300;6.846;2022-07-12T16:03:25;3.13;;;1.73;;
35494;SDS011;21608;49.300;6.846;2022-07-12T16:06:28;2.92;;;1.67;;
35494;SDS011;21608;49.300;6.846;2022-07-12T16:09:30;2.20;;;1.70;;
35494;SDS011;21608;49.300;6.846;2022-07-12T16:12:32;2.15;;;1.85;;
35494;SDS011;21608;49.300;6.846;2022-07-12T16:15:35;2.83;;;1.80;;
35494;SDS011;21608;49.300;6.846;2022-07-12T16:18:36;2.05;;;1.90;;
35494;SDS011;21608;49.300;6.846;2022-07-12T16:21:38;2.42;;;1.98;;
35494;SDS011;21608;49.300;6.846;2022-07-12T16:24:40;2.25;;;1.98;;
35494;SDS011;21608;49.300;6.846;2022-07-12T16:27:42;3.10;;;1.70;;
35494;SDS011;21608;49.300;6.846;2022-07-12T16:30:44;1.70;;;1.60;;
35494;SDS011;21608;49.300;6.846;2022-07-12T16:33:46;4.47;;;1.88;;
35494;SDS011;21608;49.300;6.846;2022-07-12T16:36:48;3.47;;;1.90;;
35494;SDS011;21608;49.300;6.846;2022-07-12T16:39:50;3.85;;;2.00;;
35494;SDS011;21608;49.300;6.846;2022-07-12T16:42:52;4.18;;;1.58;;
35494;SDS011;21608;49.300;6.846;2022-07-12T16:45:55;1.60;;;1.50;;
35494;SDS011;21608;49.300;6.846;2022-07-12T16:48:57;3.28;;;2.03;;
35494;SDS011;21608;49.300;6.846;2022-07-12T16:51:59;5.22;;;1.75;;
35494;SDS011;21608;49.300;6.846;2022-07-12T16:55:02;2.03;;;1.65;;
35494;SDS011;21608;49.300;6.846;2022-07-12T16:58:04;2.80;;;2.00;;
35494;SDS011;21608;49.300;6.846;2022-07-12T17:01:06;3.25;;;1.50;;
35494;SDS011;21608;49.300;6.846;2022-07-12T17:04:08;5.43;;;1.92;;
35494;SDS011;21608;49.300;6.846;2022-07-12T17:07:10;1.83;;;1.70;;
35494;SDS011;21608;49.300;6.846;2022-07-12T17:10:13;1.70;;;1.52;;
35494;SDS011;21608;49.300;6.846;2022-07-12T17:13:14;1.63;;;1.50;;
35494;SDS011;21608;49.300;6.846;2022-07-12T17:16:17;3.17;;;1.60;;
35494;SDS011;21608;49.300;6.846;2022-07-12T17:19:18;1.45;;;1.35;;
35494;SDS011;21608;49.300;6.846;2022-07-12T17:22:20;3.65;;;2.33;;
35494;SDS011;21608;49.300;6.846;2022-07-12T17:25:22;1.42;;;1.33;;
35494;SDS011;21608;49.300;6.846;2022-07-12T17:28:24;3.45;;;1.75;;
35494;SDS011;21608;49.300;6.846;2022-07-12T17:31:26;3.53;;;1.58;;
35494;SDS011;21608;49.300;6.846;2022-07-12T17:34:28;1.80;;;1.70;;
35494;SDS011;21608;49.300;6.846;2022-07-12T17:37:32;1.80;;;1.60;;
35494;SDS011;21608;49.300;6.846;2022-07-12T17:40:34;2.10;;;1.90;;
35494;SDS011;21608;49.300;6.846;2022-07-12T17:43:36;3.17;;;1.70;;
35494;SDS011;21608;49.300;6.846;2022-07-12T17:46:37;2.20;;;1.92;;
35494;SDS011;21608;49.300;6.846;2022-07-12T17:49:40;3.35;;;1.77;;
35494;SDS011;21608;49.300;6.846;2022-07-12T17:52:42;1.98;;;1.77;;
35494;SDS011;21608;49.300;6.846;2022-07-12T17:55:44;3.55;;;1.58;;
35494;SDS011;21608;49.300;6.846;2022-07-12T17:58:46;1.50;;;1.40;;
35494;SDS011;21608;49.300;6.846;2022-07-12T18:01:49;3.70;;;1.75;;
35494;SDS011;21608;49.300;6.846;2022-07-12T18:04:51;2.15;;;1.50;;
35494;SDS011;21608;49.300;6.846;2022-07-12T18:07:54;1.70;;;1.60;;
35494;SDS011;21608;49.300;6.846;2022-07-12T18:10:56;2.60;;;1.55;;
35494;SDS011;21608;49.300;6.846;2022-07-12T18:13:58;1.73;;;1.60;;
35494;SDS011;21608;49.300;6.846;2022-07-12T18:17:19;2.47;;;1.40;;
35494;SDS011;21608;49.300;6.846;2022-07-12T18:20:40;1.95;;;1.77;;
35494;SDS011;21608;49.300;6.846;2022-07-12T18:23:42;2.13;;;1.88;;
35494;SDS011;21608;49.300;6.846;2022-07-12T18:26:44;1.92;;;1.83;;
35494;SDS011;21608;49.300;6.846;2022-07-12T18:29:46;1.83;;;1.70;;
35494;SDS011;21608;49.300;6.846;2022-07-12T18:32:48;1.60;;;1.50;;
35494;SDS011;21608;49.300;6.846;2022-07-12T18:35:51;1.73;;;1.63;;
35494;SDS011;21608;49.300;6.846;2022-07-12T18:38:53;1.38;;;1.27;;